Terminal Aerodrome Forecast
Issued by NWS Paducah, KY

Home | Current Version | Previous Version | Text Only | Print | Product List | Glossary On
Versions: 1 2 3 4 5 6 7 8 9 10 11 12 13 14 15 16
000
FTUS43 KPAH 210500
TAFPAH
TAF
KPAH 210520Z 2106/2206 00000KT 5SM BR SKC
     FM210800 00000KT 3SM BR SKC
      TEMPO 2109/2113 1/4SM FG VV003=

USA.gov is the U.S. government's official web portal to all federal, state and local government web resources and services.